Svitzer Stanlow — MLNF7 — position and weather

sailwx.info

Track history (hours):
 
Tides and Currents Weather Stations Pressure Air Temp Water Temp Dewpoint Dewpoint Depression Visibility Wind Speed Wind Dir Waves Ship Positions

Svitzer Stanlow

Last reported at 2016-Jun-26 15:25 UTC. Time now 2016-Jun-26 15:40 UTC.
Position N 53°23' W 003°00'.

Length 39 m.

Type: Tug. MMSI: 235010620.

Date/timePositionNaut miles runAvg speedWind from/ knotsBaromVisibWave heightAir tempDewpointWater temp
2016-Jun-26 15:25N 53°23' W 003°00'0 0.0
2016-Jun-26 14:33N 53°23' W 003°00'0 0.0
2016-Jun-26 13:33N 53°23' W 003°00'0 0.0
2016-Jun-26 12:30N 53°23' W 003°00'0 0.0
2016-Jun-26 11:33N 53°23' W 003°00'0 0.0
2016-Jun-26 10:33N 53°23' W 003°00'0 0.0
2016-Jun-26 09:33N 53°23' W 003°00'0 0.0
2016-Jun-26 08:33N 53°23' W 003°00'0 0.0
2016-Jun-26 07:33N 53°23' W 003°00'0 0.0
2016-Jun-26 06:33N 53°23' W 003°00'0 0.0
2016-Jun-26 05:30N 53°23' W 003°00'0 0.0
2016-Jun-26 04:33N 53°23' W 003°00'0 0.0
2016-Jun-26 03:27N 53°23' W 003°00'0 0.0
2016-Jun-26 02:33N 53°23' W 003°00'0 0.0
2016-Jun-26 01:33N 53°23' W 003°00'0 0.0
2016-Jun-26 00:33N 53°23' W 003°00'0 0.0
2016-Jun-25 23:33N 53°23' W 003°00'0 0.0
2016-Jun-25 22:33N 53°23' W 003°00'0 0.0
2016-Jun-25 21:33N 53°23' W 003°00'0 0.0
2016-Jun-25 20:33N 53°23' W 003°00'0 0.0
2016-Jun-25 19:33N 53°23' W 003°00'0 0.0
2016-Jun-25 18:30N 53°23' W 003°00'0 0.0
2016-Jun-25 17:33N 53°23' W 003°00'0 0.0
2016-Jun-25 16:30N 53°23' W 003°00'0 0.0
2016-Jun-25 15:33N 53°23' W 003°00'0 0.2
2016-Jun-25 14:30N 53°23' W 003°00'6 6.5
2016-Jun-25 13:33N 53°29' W 003°04'8 7.8
2016-Jun-25 12:33N 53°31' W 003°17'5 4.9
2016-Jun-25 11:33N 53°32' W 003°09'9 9.4
2016-Jun-25 10:33N 53°24' W 003°00'1 1.3
2016-Jun-25 09:31N 53°23' W 002°60'0 0.3
2016-Jun-25 08:31N 53°23' W 003°00'0 0.0
2016-Jun-25 07:31N 53°23' W 003°00'0 0.0
2016-Jun-25 06:31N 53°23' W 003°00'0 0.0
2016-Jun-25 05:31N 53°23' W 003°00'0 0.0
2016-Jun-25 04:31N 53°23' W 003°00'0 0.0
2016-Jun-25 03:31N 53°23' W 003°00'0 0.0
2016-Jun-25 02:31N 53°23' W 003°00'0 0.0
2016-Jun-25 01:31N 53°23' W 003°00'0 0.0
2016-Jun-25 00:31N 53°23' W 003°00'0 0.0
2016-Jun-24 23:31N 53°23' W 003°00'0 0.0
2016-Jun-24 22:31N 53°23' W 003°00'0 0.0
2016-Jun-24 21:31N 53°23' W 003°00'0 0.0
2016-Jun-24 20:31N 53°23' W 003°00'0 0.0
2016-Jun-24 19:31N 53°23' W 003°00'0 0.0
2016-Jun-24 18:31N 53°23' W 003°00'0 0.0
2016-Jun-24 17:31N 53°23' W 003°00'0 0.0
2016-Jun-24 16:31N 53°23' W 003°00'0 0.0
2016-Jun-24 15:28N 53°23' W 003°00'0 0.0
2016-Jun-24 14:31N 53°23' W 003°00'0 0.0
2016-Jun-24 13:31N 53°23' W 003°00'0 0.3
2016-Jun-24 12:33N 53°23' W 002°60'0 0.2
2016-Jun-24 11:31N 53°23' W 002°60'0 0.0
2016-Jun-24 10:31N 53°23' W 002°60'0 0.0
2016-Jun-24 09:31N 53°23' W 002°60'1 1.2
2016-Jun-24 08:33N 53°24' W 003°00'1 1.1
2016-Jun-24 07:32N 53°23' W 002°60'0 0.0
2016-Jun-24 04:32N 53°23' W 002°60'0 0.0
2016-Jun-24 03:32N 53°23' W 002°60'0 0.0
2016-Jun-24 02:32N 53°23' W 002°60'0 0.1
2016-Jun-24 01:34N 53°23' W 002°60'4 3.6
2016-Jun-24 00:34N 53°26' W 003°01'8 8.2
2016-Jun-23 23:33N 53°31' W 003°12'2 2.0
2016-Jun-23 22:34N 53°32' W 003°09'10 9.5
2016-Jun-23 21:34N 53°24' W 003°00'1 1.0
2016-Jun-23 20:29N 53°23' W 002°60'0 0.0
2016-Jun-23 19:29N 53°23' W 002°60'0 0.0
2016-Jun-23 18:32N 53°23' W 002°60'0 0.0
2016-Jun-23 17:31N 53°23' W 002°60'0 0.0
2016-Jun-23 16:31N 53°23' W 002°60'0 0.0
2016-Jun-23 15:31N 53°23' W 002°60'0 0.0
2016-Jun-23 14:31N 53°23' W 002°60'0 0.0
2016-Jun-23 13:31N 53°23' W 002°60'0 0.0
2016-Jun-23 12:31N 53°23' W 002°60'0 0.0
2016-Jun-23 11:31N 53°23' W 002°60'0 0.0
2016-Jun-23 10:31N 53°23' W 002°60'1 1.5
2016-Jun-23 09:33N 53°24' W 003°00'1 1.4
2016-Jun-23 08:33N 53°23' W 002°60'0 0.0
2016-Jun-23 07:33N 53°23' W 002°60'0 0.0
2016-Jun-23 05:33N 53°23' W 002°60'0 0.0
2016-Jun-23 04:30N 53°23' W 002°60'0 0.0
2016-Jun-23 03:33N 53°23' W 002°60'0 0.0
2016-Jun-23 02:33N 53°23' W 002°60'0 0.0
2016-Jun-23 01:33N 53°23' W 002°60'1 0.5
2016-Jun-23 00:33N 53°23' W 003°00'6 5.6
2016-Jun-22 23:33N 53°28' W 003°04'8 7.7
2016-Jun-22 22:33N 53°31' W 003°16'8 7.8
2016-Jun-22 21:33N 53°28' W 003°04'6 6.0
2016-Jun-22 20:33N 53°23' W 002°60'0 0.0
2016-Jun-22 19:33N 53°23' W 002°60'0 0.0
2016-Jun-22 18:33N 53°23' W 002°60'0 0.0
2016-Jun-22 17:33N 53°23' W 002°60'0 0.0
2016-Jun-22 16:33N 53°23' W 002°60'0 0.0
2016-Jun-22 15:30N 53°23' W 002°60'0 0.0
2016-Jun-22 14:32N 53°23' W 002°60'1 1.1
2016-Jun-22 13:33N 53°24' W 003°00'3 2.7
2016-Jun-22 12:33N 53°26' W 003°01'1 0.8
2016-Jun-22 11:34N 53°27' W 003°02'2 1.8
2016-Jun-22 10:33N 53°25' W 003°00'0 0.1
2016-Jun-22 09:33N 53°25' W 003°00'0 0.0
2016-Jun-22 08:33N 53°25' W 003°00'0 0.0
2016-Jun-22 07:33N 53°25' W 003°00'0 0.0
2016-Jun-22 06:33N 53°25' W 003°00'0 0.0
2016-Jun-22 05:32N 53°25' W 003°00'0 0.0
2016-Jun-22 04:32N 53°25' W 003°00'0 0.0
2016-Jun-22 03:32N 53°25' W 003°00'0 0.0
2016-Jun-22 02:32N 53°25' W 003°00'0 0.0
2016-Jun-22 01:32N 53°25' W 003°00'0 0.0
2016-Jun-22 00:32N 53°25' W 003°00'0 0.0
2016-Jun-21 23:33N 53°25' W 003°00'0 0.0
2016-Jun-21 22:29N 53°25' W 003°00'0 0.0
2016-Jun-21 21:32N 53°25' W 003°00'0 0.0
2016-Jun-21 20:32N 53°25' W 003°00'0 0.0
2016-Jun-21 19:29N 53°25' W 003°00'0 0.0
2016-Jun-21 18:32N 53°25' W 003°00'0 0.0
2016-Jun-21 17:29N 53°25' W 003°00'0 0.0
2016-Jun-21 16:32N 53°25' W 003°00'0 0.0
2016-Jun-21 15:29N 53°25' W 003°00'0 0.0
2016-Jun-21 14:29N 53°25' W 003°00'0 0.0
2016-Jun-21 13:32N 53°25' W 003°00'2 1.8
2016-Jun-21 12:32N 53°27' W 003°01'0 0.0
2016-Jun-21 11:23N 53°27' W 003°01'0 0.0
2016-Jun-21 10:32N 53°27' W 003°01'2 1.8
2016-Jun-21 09:31N 53°25' W 003°00'0 0.0
2016-Jun-21 08:31N 53°25' W 003°00'0 0.0
2016-Jun-21 07:31N 53°25' W 003°00'2 1.1
2016-Jun-21 05:33N 53°28' W 003°01'2 2.1
2016-Jun-21 04:31N 53°25' W 003°00'0 0.0
2016-Jun-21 03:28N 53°25' W 003°00'0 0.0
2016-Jun-21 02:31N 53°25' W 003°00'0 0.0
2016-Jun-21 01:31N 53°25' W 003°00'0 0.0
2016-Jun-21 00:31N 53°25' W 003°00'0 0.0
2016-Jun-20 23:31N 53°25' W 003°00'0 0.0
2016-Jun-20 22:31N 53°25' W 003°00'0 0.0
2016-Jun-20 21:31N 53°25' W 003°00'0 0.0
2016-Jun-20 20:31N 53°25' W 003°00'0 0.0
2016-Jun-20 19:31N 53°25' W 003°00'0 0.0
2016-Jun-20 18:31N 53°25' W 003°00'0 0.0
2016-Jun-20 17:31N 53°25' W 003°00'0 0.0
2016-Jun-20 16:28N 53°25' W 003°00'0 0.0
2016-Jun-20 15:31N 53°25' W 003°00'0 0.0
2016-Jun-20 14:31N 53°25' W 003°00'0 0.0
2016-Jun-20 13:31N 53°25' W 003°00'0 0.0
2016-Jun-20 12:31N 53°25' W 003°00'0 0.0
2016-Jun-20 11:28N 53°25' W 003°00'0 0.0
2016-Jun-20 10:31N 53°25' W 003°00'0 0.0
2016-Jun-20 09:30N 53°25' W 003°00'0 0.0
2016-Jun-20 08:30N 53°25' W 003°00'0 0.0
2016-Jun-20 07:33N 53°25' W 003°00'0 0.0
2016-Jun-20 06:33N 53°25' W 003°00'0 0.0
2016-Jun-20 05:33N 53°25' W 003°00'0 0.0
2016-Jun-20 04:33N 53°25' W 003°00'0 0.0
2016-Jun-20 03:33N 53°25' W 003°00'0 0.0
2016-Jun-20 02:33N 53°25' W 003°00'0 0.0
2016-Jun-20 01:33N 53°25' W 003°00'0 0.0
2016-Jun-20 00:33N 53°25' W 003°00'0 0.0
2016-Jun-19 23:30N 53°25' W 003°00'0 0.0
2016-Jun-19 22:33N 53°25' W 003°00'0 0.0
2016-Jun-19 21:33N 53°25' W 003°00'0 0.0
2016-Jun-19 20:30N 53°25' W 003°00'0 0.0
2016-Jun-19 19:33N 53°25' W 003°00'0 0.0
2016-Jun-19 18:33N 53°25' W 003°00'0 0.0
2016-Jun-19 17:33N 53°25' W 003°00'0 0.0
2016-Jun-19 16:33N 53°25' W 003°00'0 0.0
2016-Jun-19 15:33N 53°25' W 003°00'0 0.0
2016-Jun-19 14:33N 53°25' W 003°00'0 0.0
2016-Jun-19 13:33N 53°25' W 003°00'0 0.0
2016-Jun-19 12:30N 53°25' W 003°00'0 0.0
2016-Jun-19 11:33N 53°25' W 003°00'0 0.0
2016-Jun-19 10:33N 53°25' W 003°00'0 0.0
2016-Jun-19 09:33N 53°25' W 003°00'0 0.0
2016-Jun-19 08:33N 53°25' W 003°00'0 0.0
2016-Jun-19 07:33N 53°25' W 003°00'0 0.0
2016-Jun-19 06:33N 53°25' W 003°00'0 0.0
2016-Jun-19 05:33N 53°25' W 003°00'0 0.0
2016-Jun-19 04:33N 53°25' W 003°00'0 0.0
2016-Jun-19 03:33N 53°25' W 003°00'0 0.0
2016-Jun-19 02:30N 53°25' W 003°00'0 0.0
2016-Jun-19 01:33N 53°25' W 003°00'0 0.0
2016-Jun-19 00:32N 53°25' W 003°00'0 0.0
2016-Jun-18 23:32N 53°25' W 003°00'0 0.0
2016-Jun-18 22:32N 53°25' W 003°00'0 0.0
2016-Jun-18 21:32N 53°25' W 003°00'0 0.0
2016-Jun-18 20:32N 53°25' W 003°00'0 0.0
2016-Jun-18 19:32N 53°25' W 003°00'0 0.0
2016-Jun-18 18:29N 53°25' W 003°00'0 0.0
2016-Jun-18 17:32N 53°25' W 003°00'0 0.0
2016-Jun-18 16:32N 53°25' W 003°00'0 0.0
2016-Jun-18 15:26N 53°25' W 003°00'0 0.0
2016-Jun-18 14:32N 53°25' W 003°00'0 0.0
2016-Jun-18 13:32N 53°25' W 003°00'0 0.0
2016-Jun-18 12:29N 53°25' W 003°00'0 0.0
2016-Jun-18 11:32N 53°25' W 003°00'1 1.0
2016-Jun-18 10:31N 53°26' W 003°01'0 0.1
2016-Jun-18 09:32N 53°26' W 003°01'4 3.6
2016-Jun-18 08:32N 53°23' W 002°60'0 0.1
2016-Jun-18 07:32N 53°23' W 002°60'0 0.0
2016-Jun-18 06:32N 53°23' W 002°60'0 0.0
2016-Jun-18 05:32N 53°23' W 002°60'0 0.0
2016-Jun-18 04:29N 53°23' W 002°60'0 0.0
2016-Jun-18 03:32N 53°23' W 002°60'0 0.0
2016-Jun-18 02:29N 53°23' W 002°60'0 0.0
2016-Jun-18 01:32N 53°23' W 002°60'0 0.0
2016-Jun-18 00:32N 53°23' W 002°60'0 0.0
2016-Jun-17 23:32N 53°23' W 002°60'0 0.0
2016-Jun-17 22:32N 53°23' W 002°60'0 0.0
2016-Jun-17 21:32N 53°23' W 002°60'0 0.0
2016-Jun-17 20:26N 53°23' W 002°60'0 0.0
2016-Jun-17 19:32N 53°23' W 002°60'0 0.0
2016-Jun-17 18:29N 53°23' W 002°60'0 0.0
2016-Jun-17 17:31N 53°23' W 002°60'0 0.1
2016-Jun-17 16:28N 53°23' W 002°60'0 0.1
2016-Jun-17 15:32N 53°23' W 002°60'0 0.0
2016-Jun-17 14:29N 53°23' W 002°60'0 0.0
2016-Jun-17 13:32N 53°23' W 002°60'0 0.0
2016-Jun-17 12:32N 53°23' W 002°60'0 0.0
2016-Jun-17 11:32N 53°23' W 002°60'0 0.0
2016-Jun-17 10:29N 53°23' W 002°60'0 0.0
2016-Jun-17 09:32N 53°23' W 002°60'0 0.0
2016-Jun-17 08:32N 53°23' W 002°60'0 0.0
2016-Jun-17 07:26N 53°23' W 002°60'2 1.9
2016-Jun-17 06:31N 53°24' W 003°00'2 1.8
2016-Jun-17 05:32N 53°23' W 002°60'0 0.0
2016-Jun-17 04:32N 53°23' W 002°60'0 0.0
2016-Jun-17 03:32N 53°23' W 002°60'0 0.0
2016-Jun-17 02:32N 53°23' W 002°60'0 0.0
2016-Jun-17 01:29N 53°23' W 002°60'0 0.0
2016-Jun-17 00:29N 53°23' W 002°60'0 0.0
2016-Jun-16 23:32N 53°23' W 002°60'0 0.0
2016-Jun-16 22:32N 53°23' W 002°60'0 0.0
2016-Jun-16 21:29N 53°23' W 002°60'1 1.2
2016-Jun-16 20:33N 53°24' W 003°00'6 6.3
2016-Jun-16 19:34N 53°29' W 003°05'9 8.5
2016-Jun-16 18:33N 53°32' W 003°19'7 7.3
2016-Jun-16 17:33N 53°31' W 003°07'9 9.0
2016-Jun-16 16:33N 53°23' W 002°60'0 0.2
2016-Jun-16 15:32N 53°23' W 002°60'  
Track history (hours):
 
Tides and Currents Weather Stations Pressure Air Temp Water Temp Dewpoint Dewpoint Depression Visibility Wind Speed Wind Dir Waves Ship Positions

Svitzer Stanlow

Last reported at 2016-Jun-26 15:25 UTC. Time now 2016-Jun-26 15:40 UTC.
Position N 53°23' W 003°00'.

Length 39 m.

Type: Tug. MMSI: 235010620.

Date/timePositionNaut miles runAvg speedWind from/ knotsBaromVisibWave heightAir tempDewpointWater temp
2016-Jun-26 15:25N 53°23' W 003°00'0 0.0
2016-Jun-26 14:33N 53°23' W 003°00'0 0.0
2016-Jun-26 13:33N 53°23' W 003°00'0 0.0
2016-Jun-26 12:30N 53°23' W 003°00'0 0.0
2016-Jun-26 11:33N 53°23' W 003°00'0 0.0
2016-Jun-26 10:33N 53°23' W 003°00'0 0.0
2016-Jun-26 09:33N 53°23' W 003°00'0 0.0
2016-Jun-26 08:33N 53°23' W 003°00'0 0.0
2016-Jun-26 07:33N 53°23' W 003°00'0 0.0
2016-Jun-26 06:33N 53°23' W 003°00'0 0.0
2016-Jun-26 05:30N 53°23' W 003°00'0 0.0
2016-Jun-26 04:33N 53°23' W 003°00'0 0.0
2016-Jun-26 03:27N 53°23' W 003°00'0 0.0
2016-Jun-26 02:33N 53°23' W 003°00'0 0.0
2016-Jun-26 01:33N 53°23' W 003°00'0 0.0
2016-Jun-26 00:33N 53°23' W 003°00'0 0.0
2016-Jun-25 23:33N 53°23' W 003°00'0 0.0
2016-Jun-25 22:33N 53°23' W 003°00'0 0.0
2016-Jun-25 21:33N 53°23' W 003°00'0 0.0
2016-Jun-25 20:33N 53°23' W 003°00'0 0.0
2016-Jun-25 19:33N 53°23' W 003°00'0 0.0
2016-Jun-25 18:30N 53°23' W 003°00'0 0.0
2016-Jun-25 17:33N 53°23' W 003°00'0 0.0
2016-Jun-25 16:30N 53°23' W 003°00'0 0.0
2016-Jun-25 15:33N 53°23' W 003°00'0 0.2
2016-Jun-25 14:30N 53°23' W 003°00'6 6.5
2016-Jun-25 13:33N 53°29' W 003°04'8 7.8
2016-Jun-25 12:33N 53°31' W 003°17'5 4.9
2016-Jun-25 11:33N 53°32' W 003°09'9 9.4
2016-Jun-25 10:33N 53°24' W 003°00'1 1.3
2016-Jun-25 09:31N 53°23' W 002°60'0 0.3
2016-Jun-25 08:31N 53°23' W 003°00'0 0.0
2016-Jun-25 07:31N 53°23' W 003°00'0 0.0
2016-Jun-25 06:31N 53°23' W 003°00'0 0.0
2016-Jun-25 05:31N 53°23' W 003°00'0 0.0
2016-Jun-25 04:31N 53°23' W 003°00'0 0.0
2016-Jun-25 03:31N 53°23' W 003°00'0 0.0
2016-Jun-25 02:31N 53°23' W 003°00'0 0.0
2016-Jun-25 01:31N 53°23' W 003°00'0 0.0
2016-Jun-25 00:31N 53°23' W 003°00'0 0.0
2016-Jun-24 23:31N 53°23' W 003°00'0 0.0
2016-Jun-24 22:31N 53°23' W 003°00'0 0.0
2016-Jun-24 21:31N 53°23' W 003°00'0 0.0
2016-Jun-24 20:31N 53°23' W 003°00'0 0.0
2016-Jun-24 19:31N 53°23' W 003°00'0 0.0
2016-Jun-24 18:31N 53°23' W 003°00'0 0.0
2016-Jun-24 17:31N 53°23' W 003°00'0 0.0
2016-Jun-24 16:31N 53°23' W 003°00'0 0.0
2016-Jun-24 15:28N 53°23' W 003°00'0 0.0
2016-Jun-24 14:31N 53°23' W 003°00'0 0.0
2016-Jun-24 13:31N 53°23' W 003°00'0 0.3
2016-Jun-24 12:33N 53°23' W 002°60'0 0.2
2016-Jun-24 11:31N 53°23' W 002°60'0 0.0
2016-Jun-24 10:31N 53°23' W 002°60'0 0.0
2016-Jun-24 09:31N 53°23' W 002°60'1 1.2
2016-Jun-24 08:33N 53°24' W 003°00'1 1.1
2016-Jun-24 07:32N 53°23' W 002°60'0 0.0
2016-Jun-24 04:32N 53°23' W 002°60'0 0.0
2016-Jun-24 03:32N 53°23' W 002°60'0 0.0
2016-Jun-24 02:32N 53°23' W 002°60'0 0.1
2016-Jun-24 01:34N 53°23' W 002°60'4 3.6
2016-Jun-24 00:34N 53°26' W 003°01'8 8.2
2016-Jun-23 23:33N 53°31' W 003°12'2 2.0
2016-Jun-23 22:34N 53°32' W 003°09'10 9.5
2016-Jun-23 21:34N 53°24' W 003°00'1 1.0
2016-Jun-23 20:29N 53°23' W 002°60'0 0.0
2016-Jun-23 19:29N 53°23' W 002°60'0 0.0
2016-Jun-23 18:32N 53°23' W 002°60'0 0.0
2016-Jun-23 17:31N 53°23' W 002°60'0 0.0
2016-Jun-23 16:31N 53°23' W 002°60'0 0.0
2016-Jun-23 15:31N 53°23' W 002°60'0 0.0
2016-Jun-23 14:31N 53°23' W 002°60'0 0.0
2016-Jun-23 13:31N 53°23' W 002°60'0 0.0
2016-Jun-23 12:31N 53°23' W 002°60'0 0.0
2016-Jun-23 11:31N 53°23' W 002°60'0 0.0
2016-Jun-23 10:31N 53°23' W 002°60'1 1.5
2016-Jun-23 09:33N 53°24' W 003°00'1 1.4
2016-Jun-23 08:33N 53°23' W 002°60'0 0.0
2016-Jun-23 07:33N 53°23' W 002°60'0 0.0
2016-Jun-23 05:33N 53°23' W 002°60'0 0.0
2016-Jun-23 04:30N 53°23' W 002°60'0 0.0
2016-Jun-23 03:33N 53°23' W 002°60'0 0.0
2016-Jun-23 02:33N 53°23' W 002°60'0 0.0
2016-Jun-23 01:33N 53°23' W 002°60'1 0.5
2016-Jun-23 00:33N 53°23' W 003°00'6 5.6
2016-Jun-22 23:33N 53°28' W 003°04'8 7.7
2016-Jun-22 22:33N 53°31' W 003°16'8 7.8
2016-Jun-22 21:33N 53°28' W 003°04'6 6.0
2016-Jun-22 20:33N 53°23' W 002°60'0 0.0
2016-Jun-22 19:33N 53°23' W 002°60'0 0.0
2016-Jun-22 18:33N 53°23' W 002°60'0 0.0
2016-Jun-22 17:33N 53°23' W 002°60'0 0.0
2016-Jun-22 16:33N 53°23' W 002°60'0 0.0
2016-Jun-22 15:30N 53°23' W 002°60'0 0.0
2016-Jun-22 14:32N 53°23' W 002°60'1 1.1
2016-Jun-22 13:33N 53°24' W 003°00'3 2.7
2016-Jun-22 12:33N 53°26' W 003°01'1 0.8
2016-Jun-22 11:34N 53°27' W 003°02'2 1.8
2016-Jun-22 10:33N 53°25' W 003°00'0 0.1
2016-Jun-22 09:33N 53°25' W 003°00'0 0.0
2016-Jun-22 08:33N 53°25' W 003°00'0 0.0
2016-Jun-22 07:33N 53°25' W 003°00'0 0.0
2016-Jun-22 06:33N 53°25' W 003°00'0 0.0
2016-Jun-22 05:32N 53°25' W 003°00'0 0.0
2016-Jun-22 04:32N 53°25' W 003°00'0 0.0
2016-Jun-22 03:32N 53°25' W 003°00'0 0.0
2016-Jun-22 02:32N 53°25' W 003°00'0 0.0
2016-Jun-22 01:32N 53°25' W 003°00'0 0.0
2016-Jun-22 00:32N 53°25' W 003°00'0 0.0
2016-Jun-21 23:33N 53°25' W 003°00'0 0.0
2016-Jun-21 22:29N 53°25' W 003°00'0 0.0
2016-Jun-21 21:32N 53°25' W 003°00'0 0.0
2016-Jun-21 20:32N 53°25' W 003°00'0 0.0
2016-Jun-21 19:29N 53°25' W 003°00'0 0.0
2016-Jun-21 18:32N 53°25' W 003°00'0 0.0
2016-Jun-21 17:29N 53°25' W 003°00'0 0.0
2016-Jun-21 16:32N 53°25' W 003°00'0 0.0
2016-Jun-21 15:29N 53°25' W 003°00'0 0.0
2016-Jun-21 14:29N 53°25' W 003°00'0 0.0
2016-Jun-21 13:32N 53°25' W 003°00'2 1.8
2016-Jun-21 12:32N 53°27' W 003°01'0 0.0
2016-Jun-21 11:23N 53°27' W 003°01'0 0.0
2016-Jun-21 10:32N 53°27' W 003°01'2 1.8
2016-Jun-21 09:31N 53°25' W 003°00'0 0.0
2016-Jun-21 08:31N 53°25' W 003°00'0 0.0
2016-Jun-21 07:31N 53°25' W 003°00'2 1.1
2016-Jun-21 05:33N 53°28' W 003°01'2 2.1
2016-Jun-21 04:31N 53°25' W 003°00'0 0.0
2016-Jun-21 03:28N 53°25' W 003°00'0 0.0
2016-Jun-21 02:31N 53°25' W 003°00'0 0.0
2016-Jun-21 01:31N 53°25' W 003°00'0 0.0
2016-Jun-21 00:31N 53°25' W 003°00'0 0.0
2016-Jun-20 23:31N 53°25' W 003°00'0 0.0
2016-Jun-20 22:31N 53°25' W 003°00'0 0.0
2016-Jun-20 21:31N 53°25' W 003°00'0 0.0
2016-Jun-20 20:31N 53°25' W 003°00'0 0.0
2016-Jun-20 19:31N 53°25' W 003°00'0 0.0
2016-Jun-20 18:31N 53°25' W 003°00'0 0.0
2016-Jun-20 17:31N 53°25' W 003°00'0 0.0
2016-Jun-20 16:28N 53°25' W 003°00'0 0.0
2016-Jun-20 15:31N 53°25' W 003°00'0 0.0
2016-Jun-20 14:31N 53°25' W 003°00'0 0.0
2016-Jun-20 13:31N 53°25' W 003°00'0 0.0
2016-Jun-20 12:31N 53°25' W 003°00'0 0.0
2016-Jun-20 11:28N 53°25' W 003°00'0 0.0
2016-Jun-20 10:31N 53°25' W 003°00'0 0.0
2016-Jun-20 09:30N 53°25' W 003°00'0 0.0
2016-Jun-20 08:30N 53°25' W 003°00'0 0.0
2016-Jun-20 07:33N 53°25' W 003°00'0 0.0
2016-Jun-20 06:33N 53°25' W 003°00'0 0.0
2016-Jun-20 05:33N 53°25' W 003°00'0 0.0
2016-Jun-20 04:33N 53°25' W 003°00'0 0.0
2016-Jun-20 03:33N 53°25' W 003°00'0 0.0
2016-Jun-20 02:33N 53°25' W 003°00'0 0.0
2016-Jun-20 01:33N 53°25' W 003°00'0 0.0
2016-Jun-20 00:33N 53°25' W 003°00'0 0.0
2016-Jun-19 23:30N 53°25' W 003°00'0 0.0
2016-Jun-19 22:33N 53°25' W 003°00'0 0.0
2016-Jun-19 21:33N 53°25' W 003°00'0 0.0
2016-Jun-19 20:30N 53°25' W 003°00'0 0.0
2016-Jun-19 19:33N 53°25' W 003°00'0 0.0
2016-Jun-19 18:33N 53°25' W 003°00'0 0.0
2016-Jun-19 17:33N 53°25' W 003°00'0 0.0
2016-Jun-19 16:33N 53°25' W 003°00'0 0.0
2016-Jun-19 15:33N 53°25' W 003°00'0 0.0
2016-Jun-19 14:33N 53°25' W 003°00'0 0.0
2016-Jun-19 13:33N 53°25' W 003°00'0 0.0
2016-Jun-19 12:30N 53°25' W 003°00'0 0.0
2016-Jun-19 11:33N 53°25' W 003°00'0 0.0
2016-Jun-19 10:33N 53°25' W 003°00'0 0.0
2016-Jun-19 09:33N 53°25' W 003°00'0 0.0
2016-Jun-19 08:33N 53°25' W 003°00'0 0.0
2016-Jun-19 07:33N 53°25' W 003°00'0 0.0
2016-Jun-19 06:33N 53°25' W 003°00'0 0.0
2016-Jun-19 05:33N 53°25' W 003°00'0 0.0
2016-Jun-19 04:33N 53°25' W 003°00'0 0.0
2016-Jun-19 03:33N 53°25' W 003°00'0 0.0
2016-Jun-19 02:30N 53°25' W 003°00'0 0.0
2016-Jun-19 01:33N 53°25' W 003°00'0 0.0
2016-Jun-19 00:32N 53°25' W 003°00'0 0.0
2016-Jun-18 23:32N 53°25' W 003°00'0 0.0
2016-Jun-18 22:32N 53°25' W 003°00'0 0.0
2016-Jun-18 21:32N 53°25' W 003°00'0 0.0
2016-Jun-18 20:32N 53°25' W 003°00'0 0.0
2016-Jun-18 19:32N 53°25' W 003°00'0 0.0
2016-Jun-18 18:29N 53°25' W 003°00'0 0.0
2016-Jun-18 17:32N 53°25' W 003°00'0 0.0
2016-Jun-18 16:32N 53°25' W 003°00'0 0.0
2016-Jun-18 15:26N 53°25' W 003°00'0 0.0
2016-Jun-18 14:32N 53°25' W 003°00'0 0.0
2016-Jun-18 13:32N 53°25' W 003°00'0 0.0
2016-Jun-18 12:29N 53°25' W 003°00'0 0.0
2016-Jun-18 11:32N 53°25' W 003°00'1 1.0
2016-Jun-18 10:31N 53°26' W 003°01'0 0.1
2016-Jun-18 09:32N 53°26' W 003°01'4 3.6
2016-Jun-18 08:32N 53°23' W 002°60'0 0.1
2016-Jun-18 07:32N 53°23' W 002°60'0 0.0
2016-Jun-18 06:32N 53°23' W 002°60'0 0.0
2016-Jun-18 05:32N 53°23' W 002°60'0 0.0
2016-Jun-18 04:29N 53°23' W 002°60'0 0.0
2016-Jun-18 03:32N 53°23' W 002°60'0 0.0
2016-Jun-18 02:29N 53°23' W 002°60'0 0.0
2016-Jun-18 01:32N 53°23' W 002°60'0 0.0
2016-Jun-18 00:32N 53°23' W 002°60'0 0.0
2016-Jun-17 23:32N 53°23' W 002°60'0 0.0
2016-Jun-17 22:32N 53°23' W 002°60'0 0.0
2016-Jun-17 21:32N 53°23' W 002°60'0 0.0
2016-Jun-17 20:26N 53°23' W 002°60'0 0.0
2016-Jun-17 19:32N 53°23' W 002°60'0 0.0
2016-Jun-17 18:29N 53°23' W 002°60'0 0.0
2016-Jun-17 17:31N 53°23' W 002°60'0 0.1
2016-Jun-17 16:28N 53°23' W 002°60'0 0.1
2016-Jun-17 15:32N 53°23' W 002°60'0 0.0
2016-Jun-17 14:29N 53°23' W 002°60'0 0.0
2016-Jun-17 13:32N 53°23' W 002°60'0 0.0
2016-Jun-17 12:32N 53°23' W 002°60'0 0.0
2016-Jun-17 11:32N 53°23' W 002°60'0 0.0
2016-Jun-17 10:29N 53°23' W 002°60'0 0.0
2016-Jun-17 09:32N 53°23' W 002°60'0 0.0
2016-Jun-17 08:32N 53°23' W 002°60'0 0.0
2016-Jun-17 07:26N 53°23' W 002°60'2 1.9
2016-Jun-17 06:31N 53°24' W 003°00'2 1.8
2016-Jun-17 05:32N 53°23' W 002°60'0 0.0
2016-Jun-17 04:32N 53°23' W 002°60'0 0.0
2016-Jun-17 03:32N 53°23' W 002°60'0 0.0
2016-Jun-17 02:32N 53°23' W 002°60'0 0.0
2016-Jun-17 01:29N 53°23' W 002°60'0 0.0
2016-Jun-17 00:29N 53°23' W 002°60'0 0.0
2016-Jun-16 23:32N 53°23' W 002°60'0 0.0
2016-Jun-16 22:32N 53°23' W 002°60'0 0.0
2016-Jun-16 21:29N 53°23' W 002°60'1 1.2
2016-Jun-16 20:33N 53°24' W 003°00'6 6.3
2016-Jun-16 19:34N 53°29' W 003°05'9 8.5
2016-Jun-16 18:33N 53°32' W 003°19'7 7.3
2016-Jun-16 17:33N 53°31' W 003°07'9 9.0
2016-Jun-16 16:33N 53°23' W 002°60'0 0.2
2016-Jun-16 15:32N 53°23' W 002°60'  

Dump ship's entire track history